Decoded Metar for PAGY (SKAGWAY in AK, USA) (IATA:SGY) | Meteo·Mobile Aviation Weather
aviador You're here:

PAGY Decoded Metar

SKAGWAY in AK, USA
Report Time2019-02-20 00:53:00
UTC Time2019-02-20 01:54:58
Flight Rules vfr VFR
WindCalm
Visibility9999 m
Phenomena:N/A
Clouds:Few 034 Hf
Expected CloudBase > 400 ft AGL from Temp-Dew spread
CeilingNone
Temp02°C (ISA -13)
Dew Point01°C (93% RH)
AAT0.2°C
QNH1012 hPa
Density Alt-1,440 ft
Elevation16 ft
Report Wrong Elevation
Raw Report
PAGY 200053Z AUTO 00000KT 10SM FEW034 02/01 A2988 RMK AO2 SLP118
T00220006 TSNO=

Extra information for PAGY:More info

Metar Taf Metar & Taf Last 4 Metars F.Rules Stats Wind Profile Meteogram Temp Stats Airport Information Weather charts Add Link Nearby VenuesMetar ALERT Operation Metar Decoded Social comments

AIRNAV info for PAGY